sensor_id;sensor_type;location;lat;lon;timestamp;P1;durP1;ratioP1;P2;durP2;ratioP2
51724;SDS011;37801;53.224;6.552;2022-12-07T00:01:15;4.97;;;1.25;;
51724;SDS011;37801;53.224;6.552;2022-12-07T00:03:44;9.73;;;1.25;;
51724;SDS011;37801;53.224;6.552;2022-12-07T00:06:12;4.55;;;1.00;;
51724;SDS011;37801;53.224;6.552;2022-12-07T00:08:39;7.65;;;1.40;;
51724;SDS011;37801;53.224;6.552;2022-12-07T00:11:06;10.65;;;1.35;;
51724;SDS011;37801;53.224;6.552;2022-12-07T00:13:34;9.80;;;1.23;;
51724;SDS011;37801;53.224;6.552;2022-12-07T00:16:02;7.15;;;1.23;;
51724;SDS011;37801;53.224;6.552;2022-12-07T00:18:29;7.15;;;1.02;;
51724;SDS011;37801;53.224;6.552;2022-12-07T00:20:59;4.22;;;1.00;;
51724;SDS011;37801;53.224;6.552;2022-12-07T00:23:29;7.70;;;1.70;;
51724;SDS011;37801;53.224;6.552;2022-12-07T00:25:55;7.82;;;1.20;;
51724;SDS011;37801;53.224;6.552;2022-12-07T00:28:21;5.82;;;1.00;;
51724;SDS011;37801;53.224;6.552;2022-12-07T00:30:46;6.43;;;1.10;;
51724;SDS011;37801;53.224;6.552;2022-12-07T00:33:12;9.23;;;1.33;;
51724;SDS011;37801;53.224;6.552;2022-12-07T00:35:38;3.75;;;1.10;;
51724;SDS011;37801;53.224;6.552;2022-12-07T00:38:03;7.20;;;0.93;;
51724;SDS011;37801;53.224;6.552;2022-12-07T00:40:29;5.28;;;0.93;;
51724;SDS011;37801;53.224;6.552;2022-12-07T00:42:55;5.28;;;1.20;;
51724;SDS011;37801;53.224;6.552;2022-12-07T00:45:20;7.55;;;1.63;;
51724;SDS011;37801;53.224;6.552;2022-12-07T00:47:46;6.40;;;1.20;;
51724;SDS011;37801;53.224;6.552;2022-12-07T00:50:11;6.43;;;0.98;;
51724;SDS011;37801;53.224;6.552;2022-12-07T00:52:37;6.25;;;1.25;;
51724;SDS011;37801;53.224;6.552;2022-12-07T00:55:03;4.10;;;0.80;;
51724;SDS011;37801;53.224;6.552;2022-12-07T00:57:30;8.07;;;0.90;;
51724;SDS011;37801;53.224;6.552;2022-12-07T00:59:56;4.20;;;0.93;;
51724;SDS011;37801;53.224;6.552;2022-12-07T01:02:22;6.50;;;1.00;;
51724;SDS011;37801;53.224;6.552;2022-12-07T01:04:48;7.13;;;0.80;;
51724;SDS011;37801;53.224;6.552;2022-12-07T01:07:14;5.35;;;1.00;;
51724;SDS011;37801;53.224;6.552;2022-12-07T01:09:40;7.03;;;0.80;;
51724;SDS011;37801;53.224;6.552;2022-12-07T01:12:06;6.85;;;0.80;;
51724;SDS011;37801;53.224;6.552;2022-12-07T01:14:31;6.75;;;0.90;;
51724;SDS011;37801;53.224;6.552;2022-12-07T01:16:57;5.75;;;1.00;;
51724;SDS011;37801;53.224;6.552;2022-12-07T01:19:23;3.65;;;0.90;;
51724;SDS011;37801;53.224;6.552;2022-12-07T01:21:48;6.07;;;1.10;;
51724;SDS011;37801;53.224;6.552;2022-12-07T01:24:14;5.72;;;1.10;;
51724;SDS011;37801;53.224;6.552;2022-12-07T01:26:40;6.75;;;1.02;;
51724;SDS011;37801;53.224;6.552;2022-12-07T01:29:06;7.03;;;1.23;;
51724;SDS011;37801;53.224;6.552;2022-12-07T01:31:32;6.88;;;1.10;;
51724;SDS011;37801;53.224;6.552;2022-12-07T01:33:58;5.97;;;1.00;;
51724;SDS011;37801;53.224;6.552;2022-12-07T01:38:56;6.47;;;0.98;;
51724;SDS011;37801;53.224;6.552;2022-12-07T01:41:25;5.43;;;0.98;;
51724;SDS011;37801;53.224;6.552;2022-12-07T01:46:45;6.45;;;0.77;;
51724;SDS011;37801;53.224;6.552;2022-12-07T01:49:23;5.00;;;0.77;;
51724;SDS011;37801;53.224;6.552;2022-12-07T01:54:43;3.90;;;1.00;;
51724;SDS011;37801;53.224;6.552;2022-12-07T01:57:10;4.72;;;1.08;;
51724;SDS011;37801;53.224;6.552;2022-12-07T01:59:38;5.57;;;1.05;;
51724;SDS011;37801;53.224;6.552;2022-12-07T02:02:07;6.10;;;1.00;;
51724;SDS011;37801;53.224;6.552;2022-12-07T02:04:37;5.35;;;1.02;;
51724;SDS011;37801;53.224;6.552;2022-12-07T02:07:03;4.90;;;0.75;;
51724;SDS011;37801;53.224;6.552;2022-12-07T02:09:30;3.88;;;0.98;;
51724;SDS011;37801;53.224;6.552;2022-12-07T02:11:55;9.43;;;1.10;;
51724;SDS011;37801;53.224;6.552;2022-12-07T02:14:22;3.80;;;0.75;;
51724;SDS011;37801;53.224;6.552;2022-12-07T02:22:39;4.82;;;0.70;;
51724;SDS011;37801;53.224;6.552;2022-12-07T02:31:16;6.47;;;1.20;;
51724;SDS011;37801;53.224;6.552;2022-12-07T02:33:50;9.18;;;1.20;;
51724;SDS011;37801;53.224;6.552;2022-12-07T02:36:27;5.38;;;0.90;;
51724;SDS011;37801;53.224;6.552;2022-12-07T02:39:02;5.70;;;1.67;;
51724;SDS011;37801;53.224;6.552;2022-12-07T02:41:37;5.22;;;1.00;;
51724;SDS011;37801;53.224;6.552;2022-12-07T02:44:10;9.10;;;1.30;;
51724;SDS011;37801;53.224;6.552;2022-12-07T02:49:12;8.32;;;1.20;;
51724;SDS011;37801;53.224;6.552;2022-12-07T02:51:38;5.97;;;1.02;;
51724;SDS011;37801;53.224;6.552;2022-12-07T02:54:13;4.00;;;1.00;;
51724;SDS011;37801;53.224;6.552;2022-12-07T03:07:28;3.58;;;0.93;;
51724;SDS011;37801;53.224;6.552;2022-12-07T03:12:48;5.03;;;1.23;;
51724;SDS011;37801;53.224;6.552;2022-12-07T03:15:26;3.78;;;0.70;;
51724;SDS011;37801;53.224;6.552;2022-12-07T03:17:53;4.22;;;0.68;;
51724;SDS011;37801;53.224;6.552;2022-12-07T03:20:22;8.70;;;1.10;;
51724;SDS011;37801;53.224;6.552;2022-12-07T03:22:49;4.68;;;0.75;;
51724;SDS011;37801;53.224;6.552;2022-12-07T03:25:17;5.05;;;0.63;;
51724;SDS011;37801;53.224;6.552;2022-12-07T03:28:17;7.93;;;1.02;;
51724;SDS011;37801;53.224;6.552;2022-12-07T03:30:39;3.80;;;0.60;;
51724;SDS011;37801;53.224;6.552;2022-12-07T03:33:15;8.27;;;1.00;;
51724;SDS011;37801;53.224;6.552;2022-12-07T03:35:48;5.28;;;0.98;;
51724;SDS011;37801;53.224;6.552;2022-12-07T03:38:33;3.83;;;1.13;;
51724;SDS011;37801;53.224;6.552;2022-12-07T03:43:53;8.93;;;0.95;;
51724;SDS011;37801;53.224;6.552;2022-12-07T03:52:03;5.28;;;0.90;;
51724;SDS011;37801;53.224;6.552;2022-12-07T03:54:49;5.20;;;1.02;;
51724;SDS011;37801;53.224;6.552;2022-12-07T03:57:17;6.30;;;0.95;;
51724;SDS011;37801;53.224;6.552;2022-12-07T03:59:43;8.18;;;1.05;;
51724;SDS011;37801;53.224;6.552;2022-12-07T04:02:11;5.68;;;0.85;;
51724;SDS011;37801;53.224;6.552;2022-12-07T04:04:38;4.88;;;0.95;;
51724;SDS011;37801;53.224;6.552;2022-12-07T04:07:04;7.05;;;0.75;;
51724;SDS011;37801;53.224;6.552;2022-12-07T04:09:30;9.25;;;1.10;;
51724;SDS011;37801;53.224;6.552;2022-12-07T04:11:55;4.63;;;0.90;;
51724;SDS011;37801;53.224;6.552;2022-12-07T04:14:21;4.13;;;0.70;;
51724;SDS011;37801;53.224;6.552;2022-12-07T04:16:48;5.78;;;0.90;;
51724;SDS011;37801;53.224;6.552;2022-12-07T04:19:15;3.13;;;0.70;;
51724;SDS011;37801;53.224;6.552;2022-12-07T04:21:43;6.05;;;0.90;;
51724;SDS011;37801;53.224;6.552;2022-12-07T04:24:09;5.03;;;0.90;;
51724;SDS011;37801;53.224;6.552;2022-12-07T04:26:35;3.72;;;0.82;;
51724;SDS011;37801;53.224;6.552;2022-12-07T04:29:01;5.28;;;0.90;;
51724;SDS011;37801;53.224;6.552;2022-12-07T04:31:26;5.93;;;1.10;;
51724;SDS011;37801;53.224;6.552;2022-12-07T04:33:52;6.30;;;1.00;;
51724;SDS011;37801;53.224;6.552;2022-12-07T04:36:18;4.28;;;0.70;;
51724;SDS011;37801;53.224;6.552;2022-12-07T04:38:45;7.32;;;0.98;;
51724;SDS011;37801;53.224;6.552;2022-12-07T04:41:11;6.82;;;0.93;;
51724;SDS011;37801;53.224;6.552;2022-12-07T04:43:37;8.80;;;1.30;;
51724;SDS011;37801;53.224;6.552;2022-12-07T04:46:03;4.55;;;0.77;;
51724;SDS011;37801;53.224;6.552;2022-12-07T04:48:29;5.63;;;0.98;;
51724;SDS011;37801;53.224;6.552;2022-12-07T04:50:55;9.13;;;1.60;;
51724;SDS011;37801;53.224;6.552;2022-12-07T04:53:20;7.72;;;1.00;;
51724;SDS011;37801;53.224;6.552;2022-12-07T04:55:46;4.63;;;0.75;;
51724;SDS011;37801;53.224;6.552;2022-12-07T04:58:12;3.63;;;0.77;;
51724;SDS011;37801;53.224;6.552;2022-12-07T05:00:38;3.35;;;0.73;;
51724;SDS011;37801;53.224;6.552;2022-12-07T05:03:04;5.50;;;0.90;;
51724;SDS011;37801;53.224;6.552;2022-12-07T05:05:30;6.75;;;1.15;;
51724;SDS011;37801;53.224;6.552;2022-12-07T05:07:55;7.47;;;0.70;;
51724;SDS011;37801;53.224;6.552;2022-12-07T05:10:21;4.03;;;0.80;;
51724;SDS011;37801;53.224;6.552;2022-12-07T05:12:47;7.57;;;1.40;;
51724;SDS011;37801;53.224;6.552;2022-12-07T05:15:13;3.47;;;0.50;;
51724;SDS011;37801;53.224;6.552;2022-12-07T05:17:39;2.83;;;0.80;;
51724;SDS011;37801;53.224;6.552;2022-12-07T05:20:05;2.72;;;0.63;;
51724;SDS011;37801;53.224;6.552;2022-12-07T05:22:31;3.92;;;0.60;;
51724;SDS011;37801;53.224;6.552;2022-12-07T05:24:57;4.28;;;1.08;;
51724;SDS011;37801;53.224;6.552;2022-12-07T05:27:23;4.35;;;0.88;;
51724;SDS011;37801;53.224;6.552;2022-12-07T05:29:51;4.03;;;1.20;;
51724;SDS011;37801;53.224;6.552;2022-12-07T05:32:17;3.63;;;0.80;;
51724;SDS011;37801;53.224;6.552;2022-12-07T05:34:43;4.22;;;0.70;;
51724;SDS011;37801;53.224;6.552;2022-12-07T05:37:09;2.13;;;0.60;;
51724;SDS011;37801;53.224;6.552;2022-12-07T05:39:35;5.30;;;0.95;;
51724;SDS011;37801;53.224;6.552;2022-12-07T05:42:02;4.97;;;0.75;;
51724;SDS011;37801;53.224;6.552;2022-12-07T05:44:38;8.50;;;1.38;;
51724;SDS011;37801;53.224;6.552;2022-12-07T05:47:11;2.90;;;0.70;;
51724;SDS011;37801;53.224;6.552;2022-12-07T05:49:38;2.67;;;0.63;;
51724;SDS011;37801;53.224;6.552;2022-12-07T05:52:04;2.70;;;0.75;;
51724;SDS011;37801;53.224;6.552;2022-12-07T05:54:30;3.92;;;0.75;;
51724;SDS011;37801;53.224;6.552;2022-12-07T05:56:56;4.32;;;1.00;;
51724;SDS011;37801;53.224;6.552;2022-12-07T05:59:21;4.53;;;0.90;;
51724;SDS011;37801;53.224;6.552;2022-12-07T06:01:58;9.20;;;1.40;;
51724;SDS011;37801;53.224;6.552;2022-12-07T06:04:26;6.85;;;1.10;;
51724;SDS011;37801;53.224;6.552;2022-12-07T06:06:54;3.08;;;0.75;;
51724;SDS011;37801;53.224;6.552;2022-12-07T06:09:20;10.75;;;1.80;;
51724;SDS011;37801;53.224;6.552;2022-12-07T06:11:48;7.28;;;1.75;;
51724;SDS011;37801;53.224;6.552;2022-12-07T06:14:32;10.00;;;1.48;;
51724;SDS011;37801;53.224;6.552;2022-12-07T06:16:58;9.85;;;1.40;;
51724;SDS011;37801;53.224;6.552;2022-12-07T06:19:24;9.02;;;1.33;;
51724;SDS011;37801;53.224;6.552;2022-12-07T06:21:50;7.55;;;1.67;;
51724;SDS011;37801;53.224;6.552;2022-12-07T06:24:16;6.15;;;1.00;;
51724;SDS011;37801;53.224;6.552;2022-12-07T06:26:43;5.05;;;1.00;;
51724;SDS011;37801;53.224;6.552;2022-12-07T06:29:09;4.80;;;1.20;;
51724;SDS011;37801;53.224;6.552;2022-12-07T06:31:36;4.30;;;0.82;;
51724;SDS011;37801;53.224;6.552;2022-12-07T06:34:03;6.40;;;1.60;;
51724;SDS011;37801;53.224;6.552;2022-12-07T06:36:31;4.45;;;0.90;;
51724;SDS011;37801;53.224;6.552;2022-12-07T06:38:57;5.50;;;0.98;;
51724;SDS011;37801;53.224;6.552;2022-12-07T06:41:23;6.93;;;1.50;;
51724;SDS011;37801;53.224;6.552;2022-12-07T06:43:49;3.17;;;1.27;;
51724;SDS011;37801;53.224;6.552;2022-12-07T06:46:15;7.32;;;1.45;;
51724;SDS011;37801;53.224;6.552;2022-12-07T06:48:42;6.85;;;1.20;;
51724;SDS011;37801;53.224;6.552;2022-12-07T06:51:08;6.53;;;1.00;;
51724;SDS011;37801;53.224;6.552;2022-12-07T06:53:35;5.00;;;1.00;;
51724;SDS011;37801;53.224;6.552;2022-12-07T06:56:01;2.97;;;0.80;;
51724;SDS011;37801;53.224;6.552;2022-12-07T06:58:28;3.45;;;0.90;;
51724;SDS011;37801;53.224;6.552;2022-12-07T07:00:54;3.47;;;0.90;;
51724;SDS011;37801;53.224;6.552;2022-12-07T07:03:20;8.00;;;1.52;;
51724;SDS011;37801;53.224;6.552;2022-12-07T07:05:45;4.70;;;0.95;;
51724;SDS011;37801;53.224;6.552;2022-12-07T07:08:11;3.97;;;0.77;;
51724;SDS011;37801;53.224;6.552;2022-12-07T07:10:38;5.97;;;1.15;;
51724;SDS011;37801;53.224;6.552;2022-12-07T07:13:04;12.00;;;1.27;;
51724;SDS011;37801;53.224;6.552;2022-12-07T07:15:30;4.43;;;1.02;;
51724;SDS011;37801;53.224;6.552;2022-12-07T07:17:55;5.95;;;1.55;;
51724;SDS011;37801;53.224;6.552;2022-12-07T07:20:21;5.15;;;0.88;;
51724;SDS011;37801;53.224;6.552;2022-12-07T07:22:47;6.50;;;1.15;;
51724;SDS011;37801;53.224;6.552;2022-12-07T07:25:14;5.13;;;0.85;;
51724;SDS011;37801;53.224;6.552;2022-12-07T07:27:40;5.35;;;0.88;;
51724;SDS011;37801;53.224;6.552;2022-12-07T07:30:06;6.20;;;1.45;;
51724;SDS011;37801;53.224;6.552;2022-12-07T07:32:32;6.00;;;0.82;;
51724;SDS011;37801;53.224;6.552;2022-12-07T07:34:58;5.63;;;1.30;;
51724;SDS011;37801;53.224;6.552;2022-12-07T07:37:23;7.53;;;1.05;;
51724;SDS011;37801;53.224;6.552;2022-12-07T07:39:49;5.72;;;1.50;;
51724;SDS011;37801;53.224;6.552;2022-12-07T07:42:15;5.65;;;2.88;;
51724;SDS011;37801;53.224;6.552;2022-12-07T07:44:41;6.40;;;2.45;;
51724;SDS011;37801;53.224;6.552;2022-12-07T07:47:07;5.15;;;1.60;;
51724;SDS011;37801;53.224;6.552;2022-12-07T07:49:32;5.22;;;1.60;;
51724;SDS011;37801;53.224;6.552;2022-12-07T07:51:58;5.50;;;1.13;;
51724;SDS011;37801;53.224;6.552;2022-12-07T07:54:24;5.40;;;1.23;;
51724;SDS011;37801;53.224;6.552;2022-12-07T07:56:49;4.70;;;1.10;;
51724;SDS011;37801;53.224;6.552;2022-12-07T07:59:15;5.53;;;1.15;;
51724;SDS011;37801;53.224;6.552;2022-12-07T08:01:41;4.38;;;1.05;;
51724;SDS011;37801;53.224;6.552;2022-12-07T08:04:06;3.30;;;0.88;;
51724;SDS011;37801;53.224;6.552;2022-12-07T08:06:32;5.13;;;1.00;;
51724;SDS011;37801;53.224;6.552;2022-12-07T08:08:58;5.28;;;1.10;;
51724;SDS011;37801;53.224;6.552;2022-12-07T08:11:24;4.28;;;1.02;;
51724;SDS011;37801;53.224;6.552;2022-12-07T08:13:50;3.92;;;1.40;;
51724;SDS011;37801;53.224;6.552;2022-12-07T08:16:16;8.25;;;1.13;;
51724;SDS011;37801;53.224;6.552;2022-12-07T08:18:42;3.38;;;0.90;;
51724;SDS011;37801;53.224;6.552;2022-12-07T08:21:09;4.18;;;1.05;;
51724;SDS011;37801;53.224;6.552;2022-12-07T08:23:38;6.43;;;1.95;;
51724;SDS011;37801;53.224;6.552;2022-12-07T08:26:04;7.85;;;3.30;;
51724;SDS011;37801;53.224;6.552;2022-12-07T08:28:32;10.07;;;4.32;;
51724;SDS011;37801;53.224;6.552;2022-12-07T08:30:58;8.95;;;3.53;;
51724;SDS011;37801;53.224;6.552;2022-12-07T08:33:29;9.05;;;2.20;;
51724;SDS011;37801;53.224;6.552;2022-12-07T08:35:54;8.20;;;1.80;;
51724;SDS011;37801;53.224;6.552;2022-12-07T08:38:24;5.93;;;1.70;;
51724;SDS011;37801;53.224;6.552;2022-12-07T08:40:57;5.30;;;1.33;;
51724;SDS011;37801;53.224;6.552;2022-12-07T08:43:24;5.63;;;1.27;;
51724;SDS011;37801;53.224;6.552;2022-12-07T08:45:51;6.15;;;1.23;;
51724;SDS011;37801;53.224;6.552;2022-12-07T08:48:41;7.15;;;1.17;;
51724;SDS011;37801;53.224;6.552;2022-12-07T08:51:17;5.43;;;1.20;;
51724;SDS011;37801;53.224;6.552;2022-12-07T08:53:43;5.80;;;1.42;;
51724;SDS011;37801;53.224;6.552;2022-12-07T08:56:10;7.30;;;1.40;;
51724;SDS011;37801;53.224;6.552;2022-12-07T08:58:36;6.68;;;1.25;;
51724;SDS011;37801;53.224;6.552;2022-12-07T09:01:03;6.30;;;1.75;;
51724;SDS011;37801;53.224;6.552;2022-12-07T09:03:30;8.90;;;1.55;;
51724;SDS011;37801;53.224;6.552;2022-12-07T09:05:56;4.47;;;1.40;;
51724;SDS011;37801;53.224;6.552;2022-12-07T09:08:23;6.78;;;1.38;;
51724;SDS011;37801;53.224;6.552;2022-12-07T09:10:55;5.55;;;1.25;;
51724;SDS011;37801;53.224;6.552;2022-12-07T09:13:21;5.75;;;1.17;;
51724;SDS011;37801;53.224;6.552;2022-12-07T09:15:46;8.32;;;1.20;;
51724;SDS011;37801;53.224;6.552;2022-12-07T09:18:12;5.25;;;1.10;;
51724;SDS011;37801;53.224;6.552;2022-12-07T09:20:38;8.20;;;1.48;;
51724;SDS011;37801;53.224;6.552;2022-12-07T09:23:05;6.63;;;1.52;;
51724;SDS011;37801;53.224;6.552;2022-12-07T09:25:32;5.90;;;1.27;;
51724;SDS011;37801;53.224;6.552;2022-12-07T09:27:59;6.65;;;0.93;;
51724;SDS011;37801;53.224;6.552;2022-12-07T09:30:25;5.90;;;1.10;;
51724;SDS011;37801;53.224;6.552;2022-12-07T09:32:55;4.32;;;0.85;;
51724;SDS011;37801;53.224;6.552;2022-12-07T09:35:22;3.90;;;0.90;;
51724;SDS011;37801;53.224;6.552;2022-12-07T09:37:50;4.55;;;1.00;;
51724;SDS011;37801;53.224;6.552;2022-12-07T09:40:16;13.50;;;1.30;;
51724;SDS011;37801;53.224;6.552;2022-12-07T09:42:46;4.75;;;0.93;;
51724;SDS011;37801;53.224;6.552;2022-12-07T09:45:16;4.35;;;0.98;;
51724;SDS011;37801;53.224;6.552;2022-12-07T09:47:46;4.35;;;0.68;;
51724;SDS011;37801;53.224;6.552;2022-12-07T09:50:22;2.90;;;0.77;;
51724;SDS011;37801;53.224;6.552;2022-12-07T09:52:50;3.58;;;1.02;;
51724;SDS011;37801;53.224;6.552;2022-12-07T09:55:24;6.57;;;1.27;;
51724;SDS011;37801;53.224;6.552;2022-12-07T09:57:53;3.70;;;0.93;;
51724;SDS011;37801;53.224;6.552;2022-12-07T10:00:19;7.38;;;1.08;;
51724;SDS011;37801;53.224;6.552;2022-12-07T10:02:49;5.95;;;1.40;;
51724;SDS011;37801;53.224;6.552;2022-12-07T10:05:16;9.75;;;1.20;;
51724;SDS011;37801;53.224;6.552;2022-12-07T10:07:46;8.38;;;1.20;;
51724;SDS011;37801;53.224;6.552;2022-12-07T10:10:19;4.95;;;1.25;;
51724;SDS011;37801;53.224;6.552;2022-12-07T10:13:07;8.93;;;1.35;;
51724;SDS011;37801;53.224;6.552;2022-12-07T10:18:30;3.13;;;0.93;;
51724;SDS011;37801;53.224;6.552;2022-12-07T10:21:00;12.70;;;2.13;;
51724;SDS011;37801;53.224;6.552;2022-12-07T10:23:39;5.30;;;1.33;;
51724;SDS011;37801;53.224;6.552;2022-12-07T10:26:27;11.80;;;1.40;;
51724;SDS011;37801;53.224;6.552;2022-12-07T10:28:58;6.72;;;1.40;;
51724;SDS011;37801;53.224;6.552;2022-12-07T10:31:26;10.32;;;1.48;;
51724;SDS011;37801;53.224;6.552;2022-12-07T10:33:54;9.20;;;1.38;;
51724;SDS011;37801;53.224;6.552;2022-12-07T10:36:34;6.03;;;1.08;;
51724;SDS011;37801;53.224;6.552;2022-12-07T10:39:11;7.07;;;1.48;;
51724;SDS011;37801;53.224;6.552;2022-12-07T10:41:56;10.88;;;1.70;;
51724;SDS011;37801;53.224;6.552;2022-12-07T10:44:28;9.07;;;1.42;;
51724;SDS011;37801;53.224;6.552;2022-12-07T10:55:19;6.50;;;1.55;;
51724;SDS011;37801;53.224;6.552;2022-12-07T11:00:21;9.25;;;2.03;;
51724;SDS011;37801;53.224;6.552;2022-12-07T11:02:59;10.50;;;1.58;;
51724;SDS011;37801;53.224;6.552;2022-12-07T11:16:57;5.72;;;1.17;;
51724;SDS011;37801;53.224;6.552;2022-12-07T11:27:48;8.23;;;1.27;;
51724;SDS011;37801;53.224;6.552;2022-12-07T11:30:20;5.32;;;1.30;;
51724;SDS011;37801;53.224;6.552;2022-12-07T11:41:09;5.57;;;1.42;;
51724;SDS011;37801;53.224;6.552;2022-12-07T11:46:27;8.05;;;1.23;;
51724;SDS011;37801;53.224;6.552;2022-12-07T11:49:12;7.13;;;1.20;;
51724;SDS011;37801;53.224;6.552;2022-12-07T11:51:58;7.90;;;1.15;;
51724;SDS011;37801;53.224;6.552;2022-12-07T11:54:30;6.72;;;1.02;;
51724;SDS011;37801;53.224;6.552;2022-12-07T11:57:02;5.38;;;0.95;;
51724;SDS011;37801;53.224;6.552;2022-12-07T11:59:39;5.70;;;1.33;;
51724;SDS011;37801;53.224;6.552;2022-12-07T12:02:15;3.90;;;0.70;;
51724;SDS011;37801;53.224;6.552;2022-12-07T12:04:52;3.53;;;0.88;;
51724;SDS011;37801;53.224;6.552;2022-12-07T12:07:40;3.83;;;0.90;;
51724;SDS011;37801;53.224;6.552;2022-12-07T12:10:24;4.20;;;0.77;;
51724;SDS011;37801;53.224;6.552;2022-12-07T12:15:42;5.93;;;1.00;;
51724;SDS011;37801;53.224;6.552;2022-12-07T12:20:57;4.00;;;0.88;;
51724;SDS011;37801;53.224;6.552;2022-12-07T12:26:22;9.43;;;1.27;;
51724;SDS011;37801;53.224;6.552;2022-12-07T12:29:00;8.00;;;1.55;;
51724;SDS011;37801;53.224;6.552;2022-12-07T12:31:35;7.28;;;1.38;;
51724;SDS011;37801;53.224;6.552;2022-12-07T12:36:59;5.45;;;1.17;;
51724;SDS011;37801;53.224;6.552;2022-12-07T12:39:24;7.47;;;1.33;;
51724;SDS011;37801;53.224;6.552;2022-12-07T12:41:51;5.70;;;1.02;;
51724;SDS011;37801;53.224;6.552;2022-12-07T12:46:56;7.07;;;0.95;;
51724;SDS011;37801;53.224;6.552;2022-12-07T12:51:51;7.00;;;1.55;;
51724;SDS011;37801;53.224;6.552;2022-12-07T12:54:32;4.05;;;0.98;;
51724;SDS011;37801;53.224;6.552;2022-12-07T12:59:29;8.60;;;1.40;;
51724;SDS011;37801;53.224;6.552;2022-12-07T13:02:16;10.98;;;1.20;;
51724;SDS011;37801;53.224;6.552;2022-12-07T13:17:58;4.20;;;1.00;;
51724;SDS011;37801;53.224;6.552;2022-12-07T13:20:46;5.65;;;1.15;;
51724;SDS011;37801;53.224;6.552;2022-12-07T13:28:54;3.83;;;0.75;;
51724;SDS011;37801;53.224;6.552;2022-12-07T13:42:32;3.67;;;0.75;;
51724;SDS011;37801;53.224;6.552;2022-12-07T13:45:01;3.65;;;0.70;;
51724;SDS011;37801;53.224;6.552;2022-12-07T13:48:10;1.38;;;0.50;;
51724;SDS011;37801;53.224;6.552;2022-12-07T13:50:57;3.08;;;0.60;;
51724;SDS011;37801;53.224;6.552;2022-12-07T13:53:24;1.45;;;0.50;;
51724;SDS011;37801;53.224;6.552;2022-12-07T13:55:53;2.58;;;0.40;;
51724;SDS011;37801;53.224;6.552;2022-12-07T13:58:19;3.05;;;0.65;;
51724;SDS011;37801;53.224;6.552;2022-12-07T14:00:45;1.50;;;0.30;;
51724;SDS011;37801;53.224;6.552;2022-12-07T14:05:36;5.70;;;0.70;;
51724;SDS011;37801;53.224;6.552;2022-12-07T14:10:41;3.20;;;0.70;;
51724;SDS011;37801;53.224;6.552;2022-12-07T14:18:42;2.83;;;0.68;;
51724;SDS011;37801;53.224;6.552;2022-12-07T14:21:17;3.65;;;0.65;;
51724;SDS011;37801;53.224;6.552;2022-12-07T14:24:06;2.92;;;0.70;;
51724;SDS011;37801;53.224;6.552;2022-12-07T14:26:41;1.45;;;0.63;;
51724;SDS011;37801;53.224;6.552;2022-12-07T14:29:21;5.63;;;1.23;;
51724;SDS011;37801;53.224;6.552;2022-12-07T14:31:46;6.15;;;1.48;;
51724;SDS011;37801;53.224;6.552;2022-12-07T14:34:12;7.13;;;2.05;;
51724;SDS011;37801;53.224;6.552;2022-12-07T14:36:38;5.38;;;2.05;;
51724;SDS011;37801;53.224;6.552;2022-12-07T14:39:04;4.32;;;1.40;;
51724;SDS011;37801;53.224;6.552;2022-12-07T14:41:30;7.20;;;1.88;;
51724;SDS011;37801;53.224;6.552;2022-12-07T14:44:14;6.05;;;0.90;;
51724;SDS011;37801;53.224;6.552;2022-12-07T14:46:40;7.82;;;1.40;;
51724;SDS011;37801;53.224;6.552;2022-12-07T14:49:05;3.35;;;1.00;;
51724;SDS011;37801;53.224;6.552;2022-12-07T14:51:31;5.18;;;0.77;;
51724;SDS011;37801;53.224;6.552;2022-12-07T14:53:58;2.70;;;0.82;;
51724;SDS011;37801;53.224;6.552;2022-12-07T14:56:24;1.65;;;0.60;;
51724;SDS011;37801;53.224;6.552;2022-12-07T14:58:50;3.20;;;0.65;;
51724;SDS011;37801;53.224;6.552;2022-12-07T15:01:16;1.75;;;0.60;;
51724;SDS011;37801;53.224;6.552;2022-12-07T15:03:42;2.22;;;0.40;;
51724;SDS011;37801;53.224;6.552;2022-12-07T15:06:10;6.30;;;1.20;;
51724;SDS011;37801;53.224;6.552;2022-12-07T15:08:40;2.70;;;0.90;;
51724;SDS011;37801;53.224;6.552;2022-12-07T15:11:08;3.38;;;0.90;;
51724;SDS011;37801;53.224;6.552;2022-12-07T15:13:37;4.60;;;0.93;;
51724;SDS011;37801;53.224;6.552;2022-12-07T15:16:21;3.38;;;0.80;;
51724;SDS011;37801;53.224;6.552;2022-12-07T15:18:47;6.00;;;1.27;;
51724;SDS011;37801;53.224;6.552;2022-12-07T15:21:13;5.80;;;1.58;;
51724;SDS011;37801;53.224;6.552;2022-12-07T15:23:40;7.35;;;2.13;;
51724;SDS011;37801;53.224;6.552;2022-12-07T15:26:06;10.05;;;2.63;;
51724;SDS011;37801;53.224;6.552;2022-12-07T15:28:33;5.85;;;1.70;;
51724;SDS011;37801;53.224;6.552;2022-12-07T15:30:59;6.95;;;1.42;;
51724;SDS011;37801;53.224;6.552;2022-12-07T15:33:25;5.20;;;1.00;;
51724;SDS011;37801;53.224;6.552;2022-12-07T15:35:51;2.40;;;0.77;;
51724;SDS011;37801;53.224;6.552;2022-12-07T15:38:16;4.50;;;1.05;;
51724;SDS011;37801;53.224;6.552;2022-12-07T15:40:42;4.85;;;1.15;;
51724;SDS011;37801;53.224;6.552;2022-12-07T15:43:12;3.50;;;1.13;;
51724;SDS011;37801;53.224;6.552;2022-12-07T15:45:56;5.85;;;1.55;;
51724;SDS011;37801;53.224;6.552;2022-12-07T15:48:22;4.10;;;1.90;;
51724;SDS011;37801;53.224;6.552;2022-12-07T15:50:48;6.38;;;2.67;;
51724;SDS011;37801;53.224;6.552;2022-12-07T15:53:13;8.00;;;3.88;;
51724;SDS011;37801;53.224;6.552;2022-12-07T15:55:39;6.63;;;3.25;;
51724;SDS011;37801;53.224;6.552;2022-12-07T15:58:05;8.60;;;3.17;;
51724;SDS011;37801;53.224;6.552;2022-12-07T16:00:31;5.80;;;2.60;;
51724;SDS011;37801;53.224;6.552;2022-12-07T16:02:57;5.85;;;2.20;;
51724;SDS011;37801;53.224;6.552;2022-12-07T16:05:23;6.20;;;2.00;;
51724;SDS011;37801;53.224;6.552;2022-12-07T16:07:49;5.18;;;1.98;;
51724;SDS011;37801;53.224;6.552;2022-12-07T16:10:14;5.90;;;1.67;;
51724;SDS011;37801;53.224;6.552;2022-12-07T16:12:40;6.57;;;2.65;;
51724;SDS011;37801;53.224;6.552;2022-12-07T16:15:06;6.93;;;1.95;;
51724;SDS011;37801;53.224;6.552;2022-12-07T16:17:32;8.07;;;2.55;;
51724;SDS011;37801;53.224;6.552;2022-12-07T16:19:58;7.63;;;1.50;;
51724;SDS011;37801;53.224;6.552;2022-12-07T16:22:23;2.95;;;1.08;;
51724;SDS011;37801;53.224;6.552;2022-12-07T16:24:49;5.20;;;1.25;;
51724;SDS011;37801;53.224;6.552;2022-12-07T16:27:15;2.40;;;1.00;;
51724;SDS011;37801;53.224;6.552;2022-12-07T16:29:41;6.47;;;1.50;;
51724;SDS011;37801;53.224;6.552;2022-12-07T16:32:06;5.22;;;1.20;;
51724;SDS011;37801;53.224;6.552;2022-12-07T16:34:32;5.50;;;1.27;;
51724;SDS011;37801;53.224;6.552;2022-12-07T16:36:58;6.78;;;1.15;;
51724;SDS011;37801;53.224;6.552;2022-12-07T16:39:23;3.17;;;0.80;;
51724;SDS011;37801;53.224;6.552;2022-12-07T16:41:49;1.90;;;0.73;;
51724;SDS011;37801;53.224;6.552;2022-12-07T16:44:15;3.92;;;0.73;;
51724;SDS011;37801;53.224;6.552;2022-12-07T16:46:41;2.92;;;0.80;;
51724;SDS011;37801;53.224;6.552;2022-12-07T16:49:16;2.65;;;0.70;;
51724;SDS011;37801;53.224;6.552;2022-12-07T16:51:43;2.80;;;0.85;;
51724;SDS011;37801;53.224;6.552;2022-12-07T16:54:10;3.10;;;0.77;;
51724;SDS011;37801;53.224;6.552;2022-12-07T16:56:36;1.92;;;1.02;;
51724;SDS011;37801;53.224;6.552;2022-12-07T16:59:03;4.32;;;1.98;;
51724;SDS011;37801;53.224;6.552;2022-12-07T17:01:28;6.18;;;3.05;;
51724;SDS011;37801;53.224;6.552;2022-12-07T17:03:54;4.70;;;2.28;;
51724;SDS011;37801;53.224;6.552;2022-12-07T17:06:25;4.43;;;1.80;;
51724;SDS011;37801;53.224;6.552;2022-12-07T17:08:53;3.20;;;1.20;;
51724;SDS011;37801;53.224;6.552;2022-12-07T17:11:25;5.82;;;1.35;;
51724;SDS011;37801;53.224;6.552;2022-12-07T17:13:53;3.55;;;1.30;;
51724;SDS011;37801;53.224;6.552;2022-12-07T17:16:38;3.00;;;1.35;;
51724;SDS011;37801;53.224;6.552;2022-12-07T17:19:04;4.25;;;1.25;;
51724;SDS011;37801;53.224;6.552;2022-12-07T17:21:31;4.40;;;1.20;;
51724;SDS011;37801;53.224;6.552;2022-12-07T17:23:58;2.90;;;1.13;;
51724;SDS011;37801;53.224;6.552;2022-12-07T17:26:25;2.50;;;1.08;;